createdAt,value
2022-12-01T00:01:55.337Z,101415.75
2022-12-01T00:04:21.632Z,101424.31
2022-12-01T00:06:48.926Z,101409.75
2022-12-01T00:09:19.429Z,101415.84
2022-12-01T00:11:46.037Z,101405.53
2022-12-01T00:14:12.260Z,101408.19
2022-12-01T00:16:38.566Z,101410.75
2022-12-01T00:19:04.735Z,101422.84
2022-12-01T00:21:30.856Z,101417.66
2022-12-01T00:23:57.039Z,101420.28
2022-12-01T00:26:23.318Z,101420.28
2022-12-01T00:28:49.477Z,101422.91
2022-12-01T00:31:15.701Z,101416.03
2022-12-01T00:33:42.216Z,101432.38
2022-12-01T00:36:08.411Z,101425.53
2022-12-01T00:38:34.620Z,101428.97
2022-12-01T00:41:00.821Z,101425.47
2022-12-01T00:43:26.985Z,101429.81
2022-12-01T00:45:53.238Z,101429.81
2022-12-01T00:48:19.511Z,101435.84
2022-12-01T00:50:45.719Z,101433.31
2022-12-01T00:53:12.958Z,101430.72
2022-12-01T00:55:39.163Z,101435.03
2022-12-01T00:58:05.391Z,101432.50
2022-12-01T01:00:31.622Z,101428.16
2022-12-01T01:02:57.894Z,101436.78
2022-12-01T01:05:24.153Z,101437.59
2022-12-01T01:07:50.406Z,101437.59
2022-12-01T01:10:16.632Z,101438.47
2022-12-01T01:12:42.878Z,101444.50
2022-12-01T01:15:09.207Z,101443.66
2022-12-01T01:17:35.331Z,101439.38
2022-12-01T01:20:01.555Z,101448.84
2022-12-01T01:22:27.713Z,101442.78
2022-12-01T01:24:54.085Z,101454.91
2022-12-01T01:27:20.314Z,101449.72
2022-12-01T01:29:46.830Z,101446.28
2022-12-01T01:32:13.226Z,101458.38
2022-12-01T01:34:39.437Z,101460.06
2022-12-01T01:37:05.599Z,101454.03
2022-12-01T01:39:31.984Z,101453.19
2022-12-01T01:41:58.181Z,101456.69
2022-12-01T01:44:24.588Z,101455.81
2022-12-01T01:46:50.815Z,101454.03
2022-12-01T01:49:17.002Z,101458.38
2022-12-01T01:51:45.602Z,101458.34
2022-12-01T01:54:11.812Z,101466.16
2022-12-01T01:56:37.969Z,101461.84
2022-12-01T01:59:04.236Z,101461.84
2022-12-01T02:01:30.468Z,101460.16
2022-12-01T02:03:56.659Z,101460.16
2022-12-01T02:06:23.010Z,101457.56
2022-12-01T02:08:49.373Z,101454.13
2022-12-01T02:11:15.692Z,101456.72
2022-12-01T02:13:41.871Z,101460.97
2022-12-01T02:16:08.118Z,101463.63
2022-12-01T02:18:34.627Z,101450.69
2022-12-01T02:21:00.872Z,101459.31
2022-12-01T02:23:27.363Z,101455.00
2022-12-01T02:25:53.588Z,101452.38
2022-12-01T02:28:23.105Z,101449.81
2022-12-01T02:30:49.498Z,101451.50
2022-12-01T02:33:15.728Z,101451.44
2022-12-01T02:35:41.948Z,101450.63
2022-12-01T02:38:08.138Z,101442.06
2022-12-01T02:40:34.456Z,101450.66
2022-12-01T02:43:00.931Z,101448.03
2022-12-01T02:45:27.163Z,101437.75
2022-12-01T02:47:53.521Z,101443.78
2022-12-01T02:50:19.967Z,101432.59
2022-12-01T02:52:46.192Z,101436.03
2022-12-01T02:55:12.647Z,101440.31
2022-12-01T02:57:38.996Z,101445.53
2022-12-01T03:00:05.341Z,101436.06
2022-12-01T03:02:31.785Z,101442.06
2022-12-01T03:05:00.825Z,101443.81
2022-12-01T03:07:27.338Z,101451.56
2022-12-01T03:09:53.590Z,101443.81
2022-12-01T03:12:19.781Z,101437.72
2022-12-01T03:14:45.985Z,101444.59
2022-12-01T03:17:12.113Z,101440.28
2022-12-01T03:19:38.274Z,101441.19
2022-12-01T03:22:04.430Z,101443.81
2022-12-01T03:24:30.556Z,101430.84
2022-12-01T03:26:56.721Z,101441.16
2022-12-01T03:29:22.878Z,101436.88
2022-12-01T03:31:49.139Z,101437.75
2022-12-01T03:39:40.742Z,101445.56
2022-12-01T03:42:06.912Z,101446.41
2022-12-01T03:44:33.110Z,101448.19
2022-12-01T03:46:59.290Z,101445.63
2022-12-01T03:49:25.475Z,101442.19
2022-12-01T03:51:51.586Z,101443.94
2022-12-01T03:54:17.716Z,101437.03
2022-12-01T03:56:43.872Z,101443.94
2022-12-01T03:59:10.027Z,101447.41
2022-12-01T04:01:36.241Z,101449.13
2022-12-01T04:04:02.409Z,101448.22
2022-12-01T04:06:28.586Z,101443.94
2022-12-01T04:08:54.744Z,101448.28
2022-12-01T04:11:20.859Z,101453.44
2022-12-01T04:13:47.076Z,101453.47
2022-12-01T04:16:13.351Z,101454.34
2022-12-01T04:18:39.519Z,101462.97
2022-12-01T04:21:05.634Z,101460.34
2022-12-01T04:23:31.815Z,101454.38
2022-12-01T04:25:57.996Z,101459.53
2022-12-01T04:28:24.196Z,101455.25
2022-12-01T04:30:50.319Z,101455.28
2022-12-01T04:33:16.516Z,101458.66
2022-12-01T04:35:42.649Z,101456.94
2022-12-01T04:38:08.793Z,101456.09
2022-12-01T04:40:34.946Z,101455.22
2022-12-01T04:43:01.130Z,101457.78
2022-12-01T04:45:27.255Z,101453.47
2022-12-01T04:47:53.416Z,101456.03
2022-12-01T04:50:19.557Z,101448.34
2022-12-01T04:52:45.709Z,101451.78
2022-12-01T04:55:11.876Z,101432.94
2022-12-01T04:57:38.015Z,101446.63
2022-12-01T05:00:04.183Z,101444.91
2022-12-01T05:02:30.392Z,101452.66
2022-12-01T05:04:56.662Z,101449.19
2022-12-01T05:07:22.861Z,101451.75
2022-12-01T05:09:49.227Z,101462.94
2022-12-01T05:12:15.650Z,101468.13
2022-12-01T05:14:41.866Z,101463.78
2022-12-01T05:17:08.027Z,101465.53
2022-12-01T05:19:34.170Z,101465.53
2022-12-01T05:22:00.320Z,101461.25
2022-12-01T05:24:26.481Z,101463.00
2022-12-01T05:26:52.630Z,101463.03
2022-12-01T05:29:18.741Z,101463.03
2022-12-01T05:31:45.006Z,101461.31
2022-12-01T05:34:11.193Z,101464.78
2022-12-01T05:36:37.334Z,101460.50
2022-12-01T05:39:03.491Z,101459.66
2022-12-01T05:41:29.653Z,101469.13
2022-12-01T05:43:55.840Z,101473.47
2022-12-01T05:46:22.136Z,101474.34
2022-12-01T05:48:48.376Z,101469.22
2022-12-01T05:51:14.478Z,101471.78
2022-12-01T05:53:40.607Z,101473.50
2022-12-01T05:56:06.758Z,101470.91
2022-12-01T05:58:32.913Z,101471.78
2022-12-01T06:00:59.059Z,101472.63
2022-12-01T06:03:25.172Z,101476.91
2022-12-01T06:05:51.288Z,101470.06
2022-12-01T06:08:20.228Z,101475.19
2022-12-01T06:10:46.410Z,101478.59
2022-12-01T06:13:12.601Z,101484.59
2022-12-01T06:15:38.794Z,101482.88
2022-12-01T06:18:04.956Z,101471.72
2022-12-01T06:20:31.113Z,101477.72
2022-12-01T06:22:57.237Z,101466.50
2022-12-01T06:25:23.404Z,101479.44
2022-12-01T06:27:49.511Z,101472.50
2022-12-01T06:30:15.692Z,101454.47
2022-12-01T06:32:41.829Z,101475.97
2022-12-01T06:35:07.988Z,101481.13
2022-12-01T06:37:34.183Z,101482.03
2022-12-01T06:40:00.302Z,101485.41
2022-12-01T06:42:26.476Z,101487.97
2022-12-01T06:44:52.626Z,101496.56
2022-12-01T06:47:18.784Z,101493.97
2022-12-01T06:49:44.980Z,101498.28
2022-12-01T06:52:11.149Z,101492.25
2022-12-01T06:54:37.341Z,101494.00
2022-12-01T06:57:03.516Z,101492.25
2022-12-01T06:59:30.029Z,101498.31
2022-12-01T07:01:56.675Z,101490.50
2022-12-01T07:04:22.894Z,101493.13
2022-12-01T07:06:49.114Z,101493.94
2022-12-01T07:09:15.333Z,101496.53
2022-12-01T07:11:41.658Z,101490.53
2022-12-01T07:14:07.824Z,101496.56
2022-12-01T07:16:34.052Z,101497.44
2022-12-01T07:19:00.273Z,101513.81
2022-12-01T07:21:26.500Z,101505.22
2022-12-01T07:23:52.629Z,101508.66
2022-12-01T07:26:18.754Z,101511.25
2022-12-01T07:28:44.940Z,101510.38
2022-12-01T07:31:11.192Z,101512.13
2022-12-01T07:33:37.445Z,101510.38
2022-12-01T07:36:03.562Z,101512.06
2022-12-01T07:38:29.782Z,101514.69
2022-12-01T07:40:55.934Z,101516.41
2022-12-01T07:43:22.122Z,101529.34
2022-12-01T07:45:48.360Z,101518.97
2022-12-01T07:48:14.505Z,101517.22
2022-12-01T07:50:40.679Z,101521.56
2022-12-01T07:53:06.878Z,101520.69
2022-12-01T07:55:33.057Z,101518.09
2022-12-01T07:57:59.219Z,101529.28
2022-12-01T08:00:25.364Z,101527.59
2022-12-01T08:02:51.627Z,101527.53
2022-12-01T08:05:17.821Z,101518.97
2022-12-01T08:07:44.045Z,101518.97
2022-12-01T08:10:10.274Z,101518.97
2022-12-01T08:12:36.391Z,101518.03
2022-12-01T08:15:02.537Z,101527.53
2022-12-01T08:17:28.752Z,101518.91
2022-12-01T08:19:55.045Z,101531.81
2022-12-01T08:22:21.542Z,101530.97
2022-12-01T08:24:47.742Z,101529.25
2022-12-01T08:27:13.864Z,101522.34
2022-12-01T08:29:40.002Z,101536.13
2022-12-01T08:32:06.142Z,101543.88
2022-12-01T08:34:32.337Z,101528.34
2022-12-01T08:36:58.533Z,101532.63
2022-12-01T08:39:24.706Z,101528.34
2022-12-01T08:41:50.824Z,101541.31
2022-12-01T08:44:17.217Z,101542.97
2022-12-01T08:46:43.454Z,101541.25
2022-12-01T08:49:09.697Z,101540.41
2022-12-01T08:51:35.821Z,101538.66
2022-12-01T08:54:01.985Z,101539.50
2022-12-01T08:56:28.125Z,101537.78
2022-12-01T08:58:54.255Z,101538.63
2022-12-01T09:01:20.475Z,101543.78
2022-12-01T09:03:46.746Z,101542.06
2022-12-01T09:06:12.892Z,101542.03
2022-12-01T09:08:39.063Z,101544.63
2022-12-01T09:11:05.227Z,101538.56
2022-12-01T09:13:33.578Z,101545.44
2022-12-01T09:15:59.765Z,101545.44
2022-12-01T09:18:26.002Z,101541.16
2022-12-01T09:20:52.174Z,101548.91
2022-12-01T09:23:18.323Z,101548.88
2022-12-01T09:25:44.459Z,101543.75
2022-12-01T09:28:10.660Z,101543.72
2022-12-01T09:30:36.834Z,101547.16
2022-12-01T09:33:03.027Z,101541.16
2022-12-01T09:35:29.232Z,101537.66
2022-12-01T09:37:56.797Z,101541.06
2022-12-01T09:40:22.963Z,101542.78
2022-12-01T09:42:49.127Z,101541.09
2022-12-01T09:45:15.298Z,101541.09
2022-12-01T09:47:41.628Z,101537.66
2022-12-01T09:50:07.794Z,101535.00
2022-12-01T09:52:33.922Z,101541.81
2022-12-01T09:55:00.112Z,101538.38
2022-12-01T09:57:26.347Z,101531.44
2022-12-01T09:59:52.560Z,101533.19
2022-12-01T10:02:18.804Z,101534.94
2022-12-01T10:04:45.025Z,101528.06
2022-12-01T10:07:11.280Z,101522.06
2022-12-01T10:09:37.423Z,101522.00
2022-12-01T10:12:03.636Z,101522.88
2022-12-01T10:14:29.918Z,101518.59
2022-12-01T10:16:56.051Z,101521.13
2022-12-01T10:19:22.235Z,101508.16
2022-12-01T10:21:48.378Z,101504.69
2022-12-01T10:24:14.500Z,101499.50
2022-12-01T10:26:40.673Z,101498.69
2022-12-01T10:29:06.806Z,101496.94
2022-12-01T10:31:32.990Z,101488.31
2022-12-01T10:33:59.148Z,101490.78
2022-12-01T10:36:25.275Z,101480.38
2022-12-01T10:38:51.496Z,101481.22
2022-12-01T10:41:17.624Z,101482.06
2022-12-01T10:43:43.775Z,101469.03
2022-12-01T10:46:10.021Z,101469.91
2022-12-01T10:48:36.207Z,101474.16
2022-12-01T10:51:02.419Z,101465.41
2022-12-01T10:53:28.562Z,101461.91
2022-12-01T10:55:54.749Z,101461.94
2022-12-01T10:58:20.875Z,101459.19
2022-12-01T11:01:02.632Z,101461.84
2022-12-01T11:03:29.154Z,101461.16
2022-12-01T11:05:55.519Z,101452.53
2022-12-01T11:08:21.682Z,101455.16
2022-12-01T11:10:47.843Z,101459.34
2022-12-01T11:13:14.068Z,101444.66
2022-12-01T11:15:40.196Z,101441.13
2022-12-01T11:18:06.394Z,101445.53
2022-12-01T11:20:32.691Z,101441.22
2022-12-01T11:22:58.958Z,101438.72
2022-12-01T11:25:25.110Z,101444.69
2022-12-01T11:27:51.265Z,101436.84
2022-12-01T11:30:17.481Z,101429.81
2022-12-01T11:32:43.628Z,101433.34
2022-12-01T11:35:09.837Z,101432.44
2022-12-01T11:37:35.979Z,101432.41
2022-12-01T11:40:02.112Z,101442.00
2022-12-01T11:42:28.287Z,101436.78
2022-12-01T11:44:54.466Z,101435.00
2022-12-01T11:47:24.109Z,101435.84
2022-12-01T11:49:50.823Z,101420.38
2022-12-01T11:52:17.118Z,101431.63
2022-12-01T11:54:43.558Z,101419.44
2022-12-01T11:57:33.286Z,101414.19
2022-12-01T11:59:55.967Z,101409.94
2022-12-01T12:02:22.181Z,101413.34
2022-12-01T12:04:48.391Z,101418.44
2022-12-01T12:07:14.543Z,101418.38
2022-12-01T12:09:46.023Z,101418.38
2022-12-01T12:12:12.179Z,101410.63
2022-12-01T12:14:38.388Z,101414.16
2022-12-01T12:17:04.564Z,101412.56
2022-12-01T12:19:34.360Z,101413.44
2022-12-01T12:22:11.559Z,101412.56
2022-12-01T12:24:37.712Z,101415.09
2022-12-01T12:27:03.848Z,101403.91
2022-12-01T12:29:30.037Z,101401.34
2022-12-01T12:31:56.260Z,101406.44
2022-12-01T12:34:22.498Z,101405.63
2022-12-01T12:36:48.694Z,101408.25
2022-12-01T12:39:16.806Z,101404.84
2022-12-01T12:41:43.338Z,101406.50
2022-12-01T12:44:09.482Z,101400.50
2022-12-01T12:46:35.823Z,101406.34
2022-12-01T12:51:48.168Z,101404.81
2022-12-01T12:54:14.445Z,101404.00
2022-12-01T12:56:40.593Z,101402.38
2022-12-01T12:59:06.731Z,101402.38
2022-12-01T13:01:33.021Z,101406.78
2022-12-01T13:03:59.259Z,101397.25
2022-12-01T13:06:25.434Z,101381.59
2022-12-01T13:08:51.646Z,101387.66
2022-12-01T13:11:17.870Z,101387.66
2022-12-01T13:13:44.048Z,101392.75
2022-12-01T13:16:10.290Z,101392.63
2022-12-01T13:18:36.576Z,101388.38
2022-12-01T13:21:02.868Z,101386.63
2022-12-01T13:23:29.061Z,101387.47
2022-12-01T13:25:55.247Z,101388.41
2022-12-01T13:28:21.444Z,101387.44
2022-12-01T13:30:47.639Z,101391.84
2022-12-01T13:33:13.804Z,101386.56
2022-12-01T13:35:39.967Z,101391.75
2022-12-01T13:38:06.143Z,101386.50
2022-12-01T13:40:32.271Z,101383.13
2022-12-01T13:42:58.435Z,101380.63
2022-12-01T13:45:24.641Z,101387.47
2022-12-01T13:47:50.790Z,101378.09
2022-12-01T13:50:16.951Z,101381.69
2022-12-01T13:52:43.114Z,101378.22
2022-12-01T13:55:09.254Z,101359.28
2022-12-01T13:57:35.485Z,101375.63
2022-12-01T14:00:01.647Z,101373.09
2022-12-01T14:02:27.953Z,101373.06
2022-12-01T14:04:54.250Z,101368.03
2022-12-01T14:07:20.527Z,101375.00
2022-12-01T14:09:46.743Z,101372.50
2022-12-01T14:12:12.951Z,101372.56
2022-12-01T14:14:39.085Z,101373.44
2022-12-01T14:17:05.272Z,101372.72
2022-12-01T14:19:31.499Z,101377.06
2022-12-01T14:21:57.709Z,101374.53
2022-12-01T14:24:23.917Z,101374.56
2022-12-01T14:26:50.114Z,101382.34
2022-12-01T14:29:16.314Z,101368.56
2022-12-01T14:31:42.457Z,101367.69
2022-12-01T14:34:08.694Z,101363.41
2022-12-01T14:36:34.863Z,101374.63
2022-12-01T14:39:01.032Z,101374.66
2022-12-01T14:41:27.188Z,101373.81
2022-12-01T14:43:53.376Z,101383.34
2022-12-01T14:46:19.657Z,101383.41
2022-12-01T14:48:45.811Z,101378.25
2022-12-01T14:51:11.998Z,101383.41
2022-12-01T14:53:38.130Z,101389.47
2022-12-01T14:56:04.331Z,101389.50
2022-12-01T14:58:30.509Z,101383.53
2022-12-01T15:00:56.771Z,101376.63
2022-12-01T15:03:26.430Z,101383.47
2022-12-01T15:05:55.223Z,101382.66
2022-12-01T15:11:11.074Z,101379.34
2022-12-01T15:13:37.522Z,101381.94
2022-12-01T15:16:03.795Z,101376.75
2022-12-01T15:18:30.047Z,101376.78
2022-12-01T15:20:56.223Z,101377.69
2022-12-01T15:23:22.388Z,101380.34
2022-12-01T15:25:48.548Z,101374.44
2022-12-01T15:28:14.717Z,101379.56
2022-12-01T15:30:40.908Z,101378.75
2022-12-01T15:33:07.111Z,101384.78
2022-12-01T15:35:33.296Z,101383.94
2022-12-01T15:37:59.509Z,101360.84
2022-12-01T15:41:06.180Z,101380.53
2022-12-01T15:43:11.791Z,101384.84
2022-12-01T15:45:37.998Z,101384.88
2022-12-01T15:48:04.256Z,101389.09
2022-12-01T15:50:30.404Z,101386.50
2022-12-01T15:52:56.528Z,101386.47
2022-12-01T15:55:22.687Z,101392.38
2022-12-01T15:57:48.846Z,101398.38
2022-12-01T16:00:15.018Z,101395.78
2022-12-01T16:02:41.251Z,101390.56
2022-12-01T16:05:07.519Z,101392.28
2022-12-01T16:08:04.528Z,101392.25
2022-12-01T16:10:19.860Z,101392.25
2022-12-01T16:12:46.080Z,101393.94
2022-12-01T16:15:12.265Z,101395.66
2022-12-01T16:17:38.445Z,101380.97
2022-12-01T16:20:04.616Z,101381.81
2022-12-01T16:22:30.771Z,101377.50
2022-12-01T16:24:56.932Z,101376.69
2022-12-01T16:27:23.107Z,101382.72
2022-12-01T16:29:49.342Z,101387.81
2022-12-01T16:32:22.649Z,101381.81
2022-12-01T16:34:48.850Z,101381.88
2022-12-01T16:37:15.036Z,101383.59
2022-12-01T16:39:41.234Z,101382.75
2022-12-01T16:42:07.495Z,101381.03
2022-12-01T16:44:33.733Z,101386.19
2022-12-01T16:46:59.949Z,101384.47
2022-12-01T16:49:26.095Z,101391.38
2022-12-01T16:51:56.893Z,101397.41
2022-12-01T16:54:23.548Z,101400.00
2022-12-01T16:56:49.699Z,101394.00
2022-12-01T16:59:15.913Z,101391.50
2022-12-01T17:01:42.156Z,101388.97
2022-12-01T17:04:08.374Z,101388.13
2022-12-01T17:06:34.588Z,101391.63
2022-12-01T17:09:00.757Z,101395.06
2022-12-01T17:11:26.970Z,101395.94
2022-12-01T17:13:54.146Z,101398.50
2022-12-01T17:16:20.381Z,101397.66
2022-12-01T17:18:46.597Z,101401.94
2022-12-01T17:21:12.790Z,101406.25
2022-12-01T17:23:38.950Z,101403.66
2022-12-01T17:26:05.157Z,101401.91
2022-12-01T17:28:31.320Z,101404.47
2022-12-01T17:30:57.543Z,101407.94
2022-12-01T17:33:23.750Z,101407.97
2022-12-01T17:35:49.895Z,101407.13
2022-12-01T17:38:16.034Z,101410.53
2022-12-01T17:40:42.209Z,101405.31
2022-12-01T17:43:08.417Z,101405.34
2022-12-01T17:45:34.629Z,101406.25
2022-12-01T17:48:00.786Z,101406.25
2022-12-01T17:50:26.990Z,101412.22
2022-12-01T17:52:53.225Z,101412.19
2022-12-01T17:55:19.342Z,101412.16
2022-12-01T17:57:45.475Z,101412.13
2022-12-01T18:00:11.676Z,101408.72
2022-12-01T18:02:37.878Z,101412.13
2022-12-01T18:05:04.121Z,101408.66
2022-12-01T18:07:30.441Z,101411.28
2022-12-01T18:09:56.665Z,101410.41
2022-12-01T18:12:22.839Z,101412.97
2022-12-01T18:14:49.329Z,101418.09
2022-12-01T18:17:15.636Z,101409.47
2022-12-01T18:19:41.794Z,101409.44
2022-12-01T18:22:08.015Z,101406.88
2022-12-01T18:24:34.180Z,101407.72
2022-12-01T18:27:00.386Z,101404.25
2022-12-01T18:29:26.591Z,101406.88
2022-12-01T18:31:52.811Z,101403.38
2022-12-01T18:34:22.030Z,101399.09
2022-12-01T18:36:48.265Z,101397.38
2022-12-01T18:39:14.469Z,101396.50
2022-12-01T18:41:40.649Z,101397.38
2022-12-01T18:44:06.807Z,101400.81
2022-12-01T18:46:33.021Z,101397.34
2022-12-01T18:48:59.245Z,101399.94
2022-12-01T18:51:25.491Z,101395.66
2022-12-01T18:53:52.835Z,101391.31
2022-12-01T18:56:19.893Z,101392.16
2022-12-01T18:58:46.183Z,101384.47
2022-12-01T19:01:12.400Z,101388.75
2022-12-01T19:03:38.701Z,101378.44
2022-12-01T19:06:04.897Z,101385.31
2022-12-01T19:08:31.052Z,101380.97
2022-12-01T19:10:57.249Z,101386.19
2022-12-01T19:13:23.850Z,101385.34
2022-12-01T19:15:50.093Z,101384.50
2022-12-01T19:18:16.322Z,101392.22
2022-12-01T19:20:42.539Z,101378.50
2022-12-01T19:23:08.694Z,101375.91
2022-12-01T19:25:34.934Z,101380.22
2022-12-01T19:28:01.098Z,101387.97
2022-12-01T19:30:27.319Z,101383.63
2022-12-01T19:32:53.522Z,101378.44
2022-12-01T19:35:19.709Z,101386.19
2022-12-01T19:37:45.873Z,101379.31
2022-12-01T19:40:12.093Z,101378.47
2022-12-01T19:42:38.281Z,101381.94
2022-12-01T19:45:04.503Z,101372.44
2022-12-01T19:47:30.665Z,101384.50
2022-12-01T19:49:56.883Z,101382.81
2022-12-01T19:52:23.122Z,101383.66
2022-12-01T19:54:49.737Z,101376.75
2022-12-01T19:57:16.187Z,101377.63
2022-12-01T19:59:42.407Z,101380.25
2022-12-01T20:02:08.650Z,101378.53
2022-12-01T20:04:34.922Z,101381.94
2022-12-01T20:07:01.163Z,101380.22
2022-12-01T20:09:27.354Z,101381.91
2022-12-01T20:11:53.486Z,101376.78
2022-12-01T20:14:19.637Z,101375.91
2022-12-01T20:16:45.846Z,101375.09
2022-12-01T20:19:12.081Z,101377.63
2022-12-01T20:21:38.283Z,101379.34
2022-12-01T20:24:04.450Z,101377.66
2022-12-01T20:26:31.051Z,101375.94
2022-12-01T20:28:57.270Z,101367.38
2022-12-01T20:31:23.491Z,101375.09
2022-12-01T20:33:49.767Z,101369.13
2022-12-01T20:36:15.967Z,101365.66
2022-12-01T20:38:42.135Z,101368.25
2022-12-01T20:41:08.327Z,101362.25
2022-12-01T20:43:34.502Z,101363.97
2022-12-01T20:46:00.728Z,101364.00
2022-12-01T20:48:27.000Z,101370.00
2022-12-01T20:50:53.156Z,101359.69
2022-12-01T20:53:19.334Z,101368.28
2022-12-01T20:55:45.562Z,101370.84
2022-12-01T20:58:11.719Z,101370.91
2022-12-01T21:00:38.060Z,101359.69
2022-12-01T21:03:04.249Z,101360.56
2022-12-01T21:05:30.434Z,101363.13
2022-12-01T21:07:56.698Z,101361.44
2022-12-01T21:10:22.988Z,101362.31
2022-12-01T21:12:49.170Z,101360.56
2022-12-01T21:15:15.308Z,101369.16
2022-12-01T21:17:41.539Z,101363.16
2022-12-01T21:20:07.760Z,101362.31
2022-12-01T21:22:34.046Z,101366.63
2022-12-01T21:25:00.305Z,101361.47
2022-12-01T21:27:26.523Z,101354.59
2022-12-01T21:29:52.697Z,101358.09
2022-12-01T21:32:18.858Z,101357.22
2022-12-01T21:34:45.025Z,101361.50
2022-12-01T21:37:11.138Z,101358.09
2022-12-01T21:39:37.285Z,101364.09
2022-12-01T21:42:03.472Z,101364.09
2022-12-01T21:44:29.609Z,101358.09
2022-12-01T21:46:55.829Z,101362.41
2022-12-01T21:49:22.006Z,101360.66
2022-12-01T21:51:48.220Z,101358.13
2022-12-01T21:54:14.387Z,101359.00
2022-12-01T21:56:40.566Z,101357.25
2022-12-01T21:59:06.736Z,101356.41
2022-12-01T22:01:33.011Z,101355.56
2022-12-01T22:04:02.455Z,101359.03
2022-12-01T22:06:30.355Z,101360.75
2022-12-01T22:08:58.070Z,101358.16
2022-12-01T22:11:24.277Z,101354.75
2022-12-01T22:13:50.416Z,101355.63
2022-12-01T22:16:16.631Z,101353.03
2022-12-01T22:18:42.851Z,101355.63
2022-12-01T22:21:09.068Z,101353.88
2022-12-01T22:23:35.211Z,101351.31
2022-12-01T22:26:01.365Z,101343.56
2022-12-01T22:28:27.710Z,101348.72
2022-12-01T22:30:53.955Z,101347.03
2022-12-01T22:33:20.150Z,101340.97
2022-12-01T22:35:46.302Z,101345.28
2022-12-01T22:38:12.443Z,101349.63
2022-12-01T22:40:38.593Z,101351.28
2022-12-01T22:43:07.477Z,101339.25
2022-12-01T22:45:37.229Z,101348.75
2022-12-01T22:48:03.401Z,101335.88
2022-12-01T22:50:29.517Z,101339.34
2022-12-01T22:52:55.849Z,101336.72
2022-12-01T22:55:21.991Z,101340.22
2022-12-01T22:57:48.215Z,101336.75
2022-12-01T23:00:14.390Z,101337.63
2022-12-01T23:02:40.639Z,101336.78
2022-12-01T23:05:06.798Z,101327.31
2022-12-01T23:07:33.018Z,101330.78
2022-12-01T23:09:59.246Z,101326.50
2022-12-01T23:12:25.389Z,101345.41
2022-12-01T23:14:51.808Z,101335.06
2022-12-01T23:17:18.157Z,101324.78
2022-12-01T23:19:44.318Z,101329.06
2022-12-01T23:22:10.506Z,101332.47
2022-12-01T23:24:36.639Z,101328.19
2022-12-01T23:27:02.825Z,101333.38
2022-12-01T23:29:29.120Z,101326.50
2022-12-01T23:31:55.361Z,101328.25
2022-12-01T23:34:21.621Z,101320.50
2022-12-01T23:36:47.802Z,101320.53
2022-12-01T23:39:14.006Z,101311.88
2022-12-01T23:41:40.175Z,101310.16
2022-12-01T23:44:06.352Z,101308.44
2022-12-01T23:46:32.660Z,101306.72
2022-12-01T23:48:58.860Z,101262.16
2022-12-01T23:51:24.998Z,101299.00
2022-12-01T23:53:51.172Z,101292.97
2022-12-01T23:56:17.303Z,101278.41
2022-12-01T23:58:43.425Z,101279.22
